Terminal Aerodrome Forecast
Issued by NWS Spokane, WA

Home | Current Version | Previous Version | Text Only | Print | Product List | Glossary On
Versions: 1 2 3 4 5 6 7 8 9 10 11 12 13 14 15 16 17 18 19 20 21 22 23 24 25 26
000
FTUS46 KOTX 152327
TAFLWS
TAF
KLWS 152327Z 1600/1624 VRB04KT P6SM SCT200
     FM160400 15004KT P6SM SCT200
     FM161100 11003KT P6SM BKN250
     FM162000 31005KT P6SM SKC=

USA.gov is the U.S. government's official web portal to all federal, state and local government web resources and services.